Time;durP1;ratioP1;P1;durP2;ratioP2;P2;SDS_P1;SDS_P2;PMS_P1;PMS_P2;Temp;Humidity;BMP_temperature;BMP_pressure;BME280_temperature;BME280_humidity;BME280_pressure;Samples;Min_cycle;Max_cycle;Signal;HPM_P1;HPM_P2
2021/08/05 00:01:42;;;;;;;7.03;3.63;;;15.90;99.90;;;;;;5045900;28;20434;-72
2021/08/05 00:04:08;;;;;;;5.95;3.50;;;15.80;99.90;;;;;;5045967;28;20029;-73
2021/08/05 00:06:35;;;;;;;8.68;4.15;;;15.80;99.90;;;;;;5047270;28;20053;-73
2021/08/05 00:09:01;;;;;;;7.15;4.15;;;15.70;99.90;;;;;;5047061;28;20029;-73
2021/08/05 00:11:27;;;;;;;5.38;3.65;;;15.70;99.90;;;;;;5047038;28;20021;-71
2021/08/05 00:13:53;;;;;;;6.63;4.28;;;15.70;99.90;;;;;;5047148;28;20037;-72
2021/08/05 00:16:18;;;;;;;6.65;3.85;;;15.60;99.90;;;;;;5045437;28;20502;-72
2021/08/05 00:18:44;;;;;;;4.78;3.40;;;15.60;99.90;;;;;;5046889;28;20049;-71
2021/08/05 00:21:10;;;;;;;5.97;3.67;;;15.60;99.90;;;;;;5045527;28;20247;-72
2021/08/05 00:23:35;;;;;;;5.45;3.80;;;15.60;99.90;;;;;;5045595;28;20025;-73
2021/08/05 00:26:02;;;;;;;15.30;4.53;;;15.60;99.90;;;;;;5047062;28;20033;-72
2021/08/05 00:28:27;;;;;;;9.25;4.25;;;15.60;99.90;;;;;;5046809;28;20398;-72
2021/08/05 00:30:53;;;;;;;5.88;3.30;;;15.60;99.90;;;;;;5046720;28;20485;-72
2021/08/05 00:33:19;;;;;;;6.88;3.50;;;15.50;99.90;;;;;;5045407;28;20047;-73
2021/08/05 00:35:45;;;;;;;6.13;3.70;;;15.40;99.90;;;;;;5045480;28;20065;-71
2021/08/05 00:38:10;;;;;;;9.05;4.40;;;15.50;99.90;;;;;;5046429;28;20029;-73
2021/08/05 00:40:36;;;;;;;6.68;4.28;;;15.40;99.90;;;;;;5046725;28;20029;-72
2021/08/05 00:43:02;;;;;;;6.50;4.07;;;15.40;99.90;;;;;;5061915;28;20029;-73
2021/08/05 00:45:28;;;;;;;6.60;4.20;;;15.40;99.90;;;;;;5045431;28;20567;-71
2021/08/05 00:47:54;;;;;;;9.90;4.50;;;15.50;99.90;;;;;;5061807;28;20045;-72
2021/08/05 00:50:19;;;;;;;9.30;4.70;;;15.40;99.90;;;;;;5061669;28;20140;-72
2021/08/05 00:52:45;;;;;;;6.88;4.82;;;15.40;99.90;;;;;;5046313;28;20021;-71
2021/08/05 00:55:11;;;;;;;7.05;4.43;;;15.40;99.90;;;;;;5046138;28;20029;-73
2021/08/05 00:57:37;;;;;;;9.00;5.20;;;15.20;99.90;;;;;;5046185;28;20056;-74
2021/08/05 01:00:04;;;;;;;10.93;5.38;;;15.30;99.90;;;;;;5046098;28;20057;-73
2021/08/05 01:02:41;;;;;;;9.65;4.65;;;15.30;99.90;;;;;;5046479;28;20040;-72
2021/08/05 01:05:08;;;;;;;7.38;4.57;;;15.30;99.90;;;;;;5046168;28;20026;-72
2021/08/05 01:07:39;;;;;;;8.52;4.68;;;15.30;99.90;;;;;;5046016;28;20022;-73
2021/08/05 01:10:47;;;;;;;9.32;4.70;;;15.30;99.90;;;;;;5045848;28;20030;-72
2021/08/05 01:13:23;;;;;;;7.93;5.00;;;15.30;99.90;;;;;;4984487;28;20131;-72
2021/08/05 01:15:52;;;;;;;10.65;5.20;;;15.30;99.90;;;;;;5035779;28;20100;-72
2021/08/05 01:18:29;;;;;;;6.15;4.28;;;15.30;99.90;;;;;;5045767;28;20037;-72
2021/08/05 01:21:31;;;;;;;8.55;4.78;;;15.20;99.90;;;;;;5045899;28;20036;-72
2021/08/05 01:24:06;;;;;;;16.95;5.63;;;15.30;99.90;;;;;;5050470;28;20041;-71
2021/08/05 01:26:47;;;;;;;8.95;5.22;;;15.30;99.90;;;;;;5044478;28;20033;-72
2021/08/05 01:29:13;;;;;;;7.35;5.00;;;15.30;99.90;;;;;;5045354;28;20045;-72
2021/08/05 01:31:42;;;;;;;10.25;4.88;;;15.30;99.90;;;;;;5045522;28;20017;-71
2021/08/05 01:34:11;;;;;;;11.00;4.75;;;15.20;99.90;;;;;;5045559;28;20458;-71
2021/08/05 01:36:38;;;;;;;11.48;5.97;;;15.20;99.90;;;;;;5045676;28;20577;-73
2021/08/05 01:39:06;;;;;;;10.07;5.03;;;15.20;99.90;;;;;;5045559;28;20048;-71
2021/08/05 01:41:32;;;;;;;9.35;5.10;;;15.20;99.90;;;;;;5044178;28;20117;-72
2021/08/05 01:43:58;;;;;;;8.73;4.95;;;15.20;99.90;;;;;;5045429;28;20059;-71
2021/08/05 01:46:24;;;;;;;8.25;5.03;;;15.20;99.90;;;;;;5044269;28;20960;-72
2021/08/05 01:48:53;;;;;;;11.75;5.68;;;15.20;99.90;;;;;;5045207;28;20056;-72
2021/08/05 01:51:22;;;;;;;13.95;5.28;;;15.20;99.90;;;;;;5045303;28;20025;-72
2021/08/05 01:53:50;;;;;;;8.25;4.93;;;15.30;99.90;;;;;;5043844;28;20037;-72
2021/08/05 01:56:23;;;;;;;10.63;5.57;;;15.20;99.90;;;;;;5045068;28;20021;-72
2021/08/05 01:58:48;;;;;;;12.02;5.35;;;15.20;99.90;;;;;;5045105;28;20033;-71
2021/08/05 02:01:19;;;;;;;10.43;5.80;;;15.20;99.90;;;;;;5045079;28;20075;-73
2021/08/05 02:04:11;;;;;;;10.50;6.13;;;15.20;99.90;;;;;;5044852;28;20017;-73
2021/08/05 02:06:45;;;;;;;11.45;6.32;;;15.20;99.90;;;;;;5045093;28;20060;-73
2021/08/05 02:09:16;;;;;;;12.38;5.32;;;15.20;99.90;;;;;;5044953;28;20063;-73
2021/08/05 02:11:48;;;;;;;9.50;5.68;;;15.20;99.90;;;;;;5044792;28;20141;-72
2021/08/05 02:14:16;;;;;;;13.63;6.05;;;15.20;99.90;;;;;;5044838;28;20025;-73
2021/08/05 02:16:45;;;;;;;9.73;5.90;;;15.30;99.90;;;;;;5043171;28;20056;-74
2021/08/05 02:19:12;;;;;;;10.73;6.50;;;15.30;99.90;;;;;;5044712;28;20641;-70
2021/08/05 02:21:42;;;;;;;8.13;5.55;;;15.10;99.90;;;;;;5043418;28;20059;-74
2021/08/05 02:24:08;;;;;;;12.25;6.50;;;15.30;99.90;;;;;;5044652;28;20040;-73
2021/08/05 02:26:35;;;;;;;16.58;6.72;;;15.20;99.90;;;;;;5044886;28;20080;-73
2021/08/05 02:29:01;;;;;;;11.50;6.03;;;15.20;99.90;;;;;;5044627;28;20048;-72
2021/08/05 02:31:27;;;;;;;8.88;5.25;;;15.20;99.90;;;;;;5044748;28;20022;-71
2021/08/05 02:33:55;;;;;;;11.23;4.88;;;15.20;99.90;;;;;;5043237;28;20060;-72
2021/08/05 02:36:21;;;;;;;10.48;5.93;;;15.20;99.90;;;;;;5043083;28;20087;-72
2021/08/05 02:38:47;;;;;;;17.30;6.30;;;15.10;99.90;;;;;;5059797;28;20049;-71
2021/08/05 02:41:14;;;;;;;8.13;5.03;;;15.10;99.90;;;;;;5043254;28;20083;-71
2021/08/05 02:43:41;;;;;;;10.35;5.47;;;15.10;99.90;;;;;;5044453;28;20048;-73
2021/08/05 02:46:12;;;;;;;8.18;5.40;;;15.00;99.90;;;;;;5043327;28;20030;-73
2021/08/05 02:48:38;;;;;;;10.38;5.50;;;15.00;99.90;;;;;;5043103;28;20034;-72
2021/08/05 02:51:05;;;;;;;11.05;6.10;;;15.00;99.90;;;;;;5044528;28;20036;-72
2021/08/05 02:53:32;;;;;;;8.80;5.15;;;15.00;99.90;;;;;;5044251;28;20025;-73
2021/08/05 02:55:59;;;;;;;13.65;6.70;;;15.00;99.90;;;;;;5044614;28;20058;-73
2021/08/05 02:58:25;;;;;;;9.95;5.75;;;15.10;99.90;;;;;;5046106;28;20033;-73
2021/08/05 03:00:51;;;;;;;9.57;5.38;;;15.00;99.90;;;;;;5047366;28;20093;-73
2021/08/05 03:03:22;;;;;;;9.48;5.30;;;15.00;99.90;;;;;;5048233;28;20036;-72
2021/08/05 03:05:52;;;;;;;16.00;5.97;;;15.00;99.90;;;;;;5048203;28;20033;-72
2021/08/05 03:08:17;;;;;;;9.52;6.03;;;15.00;99.90;;;;;;5048073;28;20489;-72
2021/08/05 03:10:43;;;;;;;13.45;5.57;;;15.00;99.90;;;;;;5048164;28;20081;-73
2021/08/05 03:13:09;;;;;;;9.20;5.32;;;14.90;99.90;;;;;;5046958;28;20056;-73
2021/08/05 03:15:35;;;;;;;10.68;6.05;;;14.90;99.90;;;;;;5047785;28;20045;-73
2021/08/05 03:18:01;;;;;;;11.23;5.90;;;14.90;99.90;;;;;;5048020;28;20052;-72
2021/08/05 03:20:27;;;;;;;12.65;6.32;;;14.90;99.90;;;;;;5048098;28;20021;-71
2021/08/05 03:22:54;;;;;;;22.48;6.43;;;14.80;99.90;;;;;;5064253;28;20025;-72
2021/08/05 03:25:19;;;;;;;9.52;5.93;;;14.90;99.90;;;;;;5050478;28;20511;-71
2021/08/05 03:27:45;;;;;;;12.90;6.28;;;14.80;99.90;;;;;;5066513;28;20029;-73
2021/08/05 03:30:11;;;;;;;12.98;5.90;;;14.80;99.90;;;;;;5062413;28;20080;-73
2021/08/05 03:32:38;;;;;;;11.35;6.00;;;14.80;99.90;;;;;;5047691;28;20045;-72
2021/08/05 03:35:04;;;;;;;11.43;6.15;;;14.70;99.90;;;;;;5046400;28;20084;-72
2021/08/05 03:37:33;;;;;;;11.48;5.45;;;14.70;99.90;;;;;;5047778;28;20056;-74
2021/08/05 03:39:59;;;;;;;10.05;5.25;;;14.70;99.90;;;;;;5047879;28;20047;-73
2021/08/05 03:42:25;;;;;;;10.60;5.93;;;14.70;99.90;;;;;;5047553;28;20034;-73
2021/08/05 03:44:51;;;;;;;13.20;6.07;;;14.70;99.90;;;;;;5067308;28;20025;-72
2021/08/05 03:47:18;;;;;;;9.88;5.72;;;14.70;99.90;;;;;;5060749;28;20064;-71
2021/08/05 03:49:43;;;;;;;8.02;5.50;;;14.70;99.90;;;;;;5056524;28;20033;-72
2021/08/05 03:52:10;;;;;;;8.35;5.40;;;14.60;99.90;;;;;;5065374;28;20417;-75
2021/08/05 03:54:37;;;;;;;10.93;5.90;;;14.60;99.90;;;;;;5046140;28;20033;-72
2021/08/05 03:57:03;;;;;;;10.57;5.43;;;14.60;99.90;;;;;;5047711;28;20025;-72
2021/08/05 03:59:29;;;;;;;10.77;6.03;;;14.60;99.90;;;;;;5047545;28;20534;-72
2021/08/05 04:01:55;;;;;;;10.52;5.68;;;14.60;99.90;;;;;;5047383;28;20078;-72
2021/08/05 04:04:20;;;;;;;14.73;6.00;;;14.60;99.90;;;;;;5047349;28;20048;-73
2021/08/05 04:06:46;;;;;;;12.02;6.30;;;14.60;99.90;;;;;;5047353;28;20030;-74
2021/08/05 04:09:11;;;;;;;11.13;6.47;;;14.60;99.90;;;;;;5046134;28;20088;-73
2021/08/05 04:11:37;;;;;;;17.35;6.00;;;14.60;99.90;;;;;;5046731;28;20025;-73
2021/08/05 04:14:03;;;;;;;11.90;6.85;;;14.60;99.90;;;;;;5047227;28;20102;-74
2021/08/05 04:16:29;;;;;;;11.27;6.10;;;14.60;99.90;;;;;;5045549;28;20053;-73
2021/08/05 04:18:55;;;;;;;10.82;6.43;;;14.70;99.90;;;;;;5045310;28;20052;-73
2021/08/05 04:21:20;;;;;;;12.98;7.05;;;14.70;99.90;;;;;;5045601;28;20030;-71
2021/08/05 04:23:46;;;;;;;11.80;6.50;;;14.70;99.90;;;;;;5046337;28;20021;-71
2021/08/05 04:26:11;;;;;;;13.45;6.57;;;14.80;99.90;;;;;;5047025;28;20094;-72
2021/08/05 04:28:37;;;;;;;10.02;6.32;;;14.90;99.90;;;;;;5046593;28;20037;-72
2021/08/05 04:31:02;;;;;;;9.95;6.05;;;14.80;99.90;;;;;;5046877;28;20574;-74
2021/08/05 04:33:28;;;;;;;12.13;6.57;;;14.90;99.90;;;;;;5046966;28;20041;-72
2021/08/05 04:35:54;;;;;;;14.82;6.03;;;14.90;99.90;;;;;;5055173;28;20595;-72
2021/08/05 04:38:19;;;;;;;11.55;6.13;;;15.00;99.90;;;;;;5050568;28;20035;-71
2021/08/05 04:40:45;;;;;;;10.70;5.30;;;15.00;99.90;;;;;;5066744;28;20481;-73
2021/08/05 04:43:11;;;;;;;10.32;5.85;;;15.00;99.90;;;;;;5061028;28;20025;-73
2021/08/05 04:45:36;;;;;;;15.73;6.82;;;15.00;99.90;;;;;;5045315;28;20029;-73
2021/08/05 04:48:07;;;;;;;11.82;5.82;;;15.00;99.90;;;;;;5045976;28;20030;-71
2021/08/05 04:50:35;;;;;;;10.40;5.05;;;15.00;99.90;;;;;;5046480;28;20029;-71
2021/08/05 04:53:03;;;;;;;7.50;5.07;;;15.10;99.90;;;;;;5046111;28;20105;-72
2021/08/05 04:55:30;;;;;;;9.95;5.15;;;15.10;99.90;;;;;;5045057;28;20474;-72
2021/08/05 04:58:00;;;;;;;11.98;5.75;;;15.10;99.90;;;;;;5046147;28;20032;-71
2021/08/05 05:00:27;;;;;;;10.88;5.30;;;15.20;99.90;;;;;;5046207;28;20079;-71
2021/08/05 05:02:53;;;;;;;9.82;4.72;;;15.20;99.90;;;;;;5046206;28;20029;-71
2021/08/05 05:05:20;;;;;;;7.40;4.55;;;15.20;99.90;;;;;;5046089;28;20081;-71
2021/08/05 05:07:46;;;;;;;12.10;5.88;;;15.20;99.90;;;;;;5045889;28;20528;-72
2021/08/05 05:10:13;;;;;;;7.97;5.00;;;15.30;99.90;;;;;;5045773;28;20041;-71
2021/08/05 05:12:39;;;;;;;9.68;5.15;;;15.30;99.90;;;;;;5045723;28;20025;-74
2021/08/05 05:15:05;;;;;;;9.48;4.90;;;15.40;99.90;;;;;;5045678;28;20104;-71
2021/08/05 05:17:31;;;;;;;7.32;4.90;;;15.40;99.90;;;;;;5047590;28;20021;-71
2021/08/05 05:19:57;;;;;;;8.02;4.65;;;15.50;99.90;;;;;;5066017;28;20109;-71
2021/08/05 05:22:22;;;;;;;10.85;4.80;;;15.50;99.90;;;;;;5064946;28;20025;-71
2021/08/05 05:24:48;;;;;;;10.00;4.93;;;15.50;99.90;;;;;;5080918;28;20031;-72
2021/08/05 05:27:13;;;;;;;7.25;4.45;;;15.50;99.90;;;;;;5080801;28;20025;-70
2021/08/05 05:29:40;;;;;;;5.88;4.15;;;15.60;99.90;;;;;;5065365;28;20041;-73
2021/08/05 05:32:06;;;;;;;7.68;4.63;;;15.60;99.90;;;;;;5056009;28;20033;-72
2021/08/05 05:34:32;;;;;;;7.47;4.63;;;15.70;99.90;;;;;;5050673;28;20037;-70
2021/08/05 05:36:58;;;;;;;9.75;4.43;;;15.80;99.90;;;;;;5065757;28;20040;-72
2021/08/05 05:39:24;;;;;;;8.63;4.45;;;15.90;99.90;;;;;;5064880;28;20025;-73
2021/08/05 05:41:50;;;;;;;6.82;4.38;;;15.90;99.90;;;;;;5065495;28;20071;-71
2021/08/05 05:44:15;;;;;;;6.68;4.10;;;16.00;99.90;;;;;;5065374;28;20033;-73
2021/08/05 05:46:41;;;;;;;7.88;4.43;;;16.10;99.90;;;;;;5065247;28;20087;-72
2021/08/05 05:49:06;;;;;;;8.80;4.22;;;16.20;99.90;;;;;;5055338;28;20037;-70
2021/08/05 05:51:32;;;;;;;6.57;3.95;;;16.30;99.90;;;;;;5051458;28;20041;-73
2021/08/05 05:53:59;;;;;;;4.80;3.08;;;16.30;99.90;;;;;;5060052;28;20437;-72
2021/08/05 05:56:25;;;;;;;8.75;3.92;;;16.40;99.90;;;;;;5044040;28;20025;-71
2021/08/05 05:58:52;;;;;;;5.03;3.22;;;16.50;99.90;;;;;;5044110;28;20037;-74
2021/08/05 06:01:17;;;;;;;6.65;3.30;;;16.60;99.90;;;;;;5044306;28;20075;-74
2021/08/05 06:03:44;;;;;;;5.28;3.22;;;16.60;99.90;;;;;;5043171;28;20079;-74
2021/08/05 06:06:10;;;;;;;6.78;3.65;;;16.70;99.90;;;;;;5043322;28;20030;-72
2021/08/05 06:08:36;;;;;;;5.22;2.53;;;16.80;99.90;;;;;;5044808;28;20041;-73
2021/08/05 06:11:02;;;;;;;5.03;3.13;;;16.80;99.90;;;;;;5043295;28;20025;-72
2021/08/05 06:13:28;;;;;;;4.20;2.55;;;16.90;99.90;;;;;;5048080;28;20029;-73
2021/08/05 06:15:53;;;;;;;4.15;2.50;;;17.00;99.90;;;;;;5059417;28;20056;-70
2021/08/05 06:18:19;;;;;;;5.35;2.83;;;16.90;99.90;;;;;;5044700;28;20036;-69
2021/08/05 06:20:45;;;;;;;5.78;3.00;;;17.10;99.90;;;;;;5052903;28;20055;-73
2021/08/05 06:23:10;;;;;;;4.18;2.75;;;17.10;99.90;;;;;;5043549;28;20037;-72
2021/08/05 06:25:38;;;;;;;6.43;2.72;;;17.10;99.90;;;;;;5043389;28;20025;-72
2021/08/05 06:28:05;;;;;;;8.15;2.55;;;17.20;99.90;;;;;;5064381;28;20032;-71
2021/08/05 06:30:32;;;;;;;7.97;2.17;;;17.20;99.90;;;;;;5056392;28;20505;-71
2021/08/05 06:32:58;;;;;;;5.55;2.60;;;17.20;99.90;;;;;;5042912;28;20052;-72
2021/08/05 06:35:24;;;;;;;3.90;2.30;;;17.20;99.90;;;;;;5044708;28;20033;-72
2021/08/05 06:37:50;;;;;;;4.18;2.63;;;17.20;99.90;;;;;;5050819;28;20029;-73
2021/08/05 06:40:16;;;;;;;4.07;2.00;;;17.30;99.90;;;;;;5043227;28;20112;-71
2021/08/05 06:42:42;;;;;;;2.45;2.15;;;17.30;99.90;;;;;;5043263;28;20033;-71
2021/08/05 06:45:09;;;;;;;4.70;2.45;;;17.30;99.90;;;;;;5044574;28;20034;-73
2021/08/05 06:47:41;;;;;;;2.90;2.10;;;17.30;99.90;;;;;;5044776;28;20021;-72
2021/08/05 06:50:12;;;;;;;4.07;2.33;;;17.30;99.90;;;;;;5044531;28;20037;-72
2021/08/05 06:52:38;;;;;;;9.82;2.72;;;17.30;99.90;;;;;;5044541;28;20033;-73
2021/08/05 06:55:04;;;;;;;5.25;2.28;;;17.20;99.90;;;;;;5043501;28;20022;-72
2021/08/05 06:57:32;;;;;;;4.93;2.67;;;17.30;99.90;;;;;;5044642;28;20037;-72
2021/08/05 06:59:58;;;;;;;4.55;2.72;;;17.30;99.90;;;;;;5044638;28;20014;-71
2021/08/05 07:02:24;;;;;;;3.65;1.88;;;17.40;99.90;;;;;;5044444;28;20021;-72
2021/08/05 07:04:50;;;;;;;6.80;2.63;;;17.40;99.90;;;;;;5042881;28;20121;-72
2021/08/05 07:07:15;;;;;;;3.15;2.15;;;17.50;99.90;;;;;;5044260;28;20022;-72
2021/08/05 07:09:41;;;;;;;5.20;3.00;;;17.50;99.90;;;;;;5042369;28;20041;-71
2021/08/05 07:12:08;;;;;;;5.50;3.05;;;17.50;99.90;;;;;;5043392;28;20032;-71
2021/08/05 07:14:34;;;;;;;5.38;2.58;;;17.60;99.90;;;;;;5041857;28;20115;-73
2021/08/05 07:17:00;;;;;;;8.65;3.03;;;17.50;99.90;;;;;;5043037;28;20051;-72
2021/08/05 07:19:26;;;;;;;2.50;1.85;;;17.70;99.90;;;;;;5048063;28;20037;-70
2021/08/05 07:21:52;;;;;;;4.22;2.13;;;17.80;99.90;;;;;;5059656;28;20026;-70
2021/08/05 07:24:17;;;;;;;7.60;3.15;;;17.90;99.90;;;;;;5060841;28;20029;-71
2021/08/05 07:26:44;;;;;;;5.07;2.95;;;18.00;99.90;;;;;;5064198;28;20067;-69
2021/08/05 07:29:10;;;;;;;6.60;2.47;;;18.10;99.90;;;;;;5059227;28;20037;-72
2021/08/05 07:31:36;;;;;;;4.13;2.25;;;18.30;99.90;;;;;;5044157;28;20155;-70
2021/08/05 07:34:09;;;;;;;5.35;2.95;;;18.30;99.90;;;;;;5043817;28;20030;-72
2021/08/05 07:36:36;;;;;;;3.28;2.20;;;18.40;99.90;;;;;;5042989;28;20033;-73
2021/08/05 07:39:02;;;;;;;5.45;2.42;;;18.60;99.90;;;;;;5044577;28;20036;-72
2021/08/05 07:41:28;;;;;;;3.70;2.50;;;18.60;99.90;;;;;;5043976;28;20030;-71
2021/08/05 07:43:53;;;;;;;5.60;2.85;;;18.80;99.90;;;;;;5048570;28;20033;-70
2021/08/05 07:46:22;;;;;;;15.50;2.95;;;18.90;99.90;;;;;;5066551;28;20025;-73
2021/08/05 07:48:48;;;;;;;3.90;2.08;;;19.10;99.90;;;;;;5065549;28;20134;-70
2021/08/05 07:51:14;;;;;;;10.02;2.95;;;19.20;99.90;;;;;;5066338;28;20127;-71
2021/08/05 07:53:39;;;;;;;6.97;3.25;;;19.30;99.90;;;;;;5067274;28;20035;-71
2021/08/05 07:56:05;;;;;;;4.43;2.58;;;19.40;99.90;;;;;;5067816;28;20032;-72
2021/08/05 07:58:31;;;;;;;6.13;2.80;;;19.40;99.90;;;;;;5067702;28;20025;-71
2021/08/05 08:01:00;;;;;;;5.22;2.75;;;19.40;99.90;;;;;;5065998;28;20060;-72
2021/08/05 08:03:25;;;;;;;2.90;2.15;;;19.40;99.90;;;;;;5059922;28;20033;-73
2021/08/05 08:05:51;;;;;;;5.60;3.22;;;19.40;99.90;;;;;;5046007;28;20125;-70
2021/08/05 08:08:17;;;;;;;7.68;2.53;;;19.50;99.90;;;;;;5047077;28;20033;-72
2021/08/05 08:10:43;;;;;;;2.75;2.38;;;19.50;99.90;;;;;;5058281;28;20033;-70
2021/08/05 08:13:09;;;;;;;4.25;2.15;;;19.50;99.90;;;;;;5047270;28;20057;-70
2021/08/05 08:15:34;;;;;;;3.50;2.40;;;19.60;99.90;;;;;;5045716;28;20072;-71
2021/08/05 08:18:01;;;;;;;3.17;2.22;;;19.60;99.90;;;;;;5045920;28;20030;-72
2021/08/05 08:20:26;;;;;;;4.47;2.55;;;19.70;99.90;;;;;;5056531;28;20024;-70
2021/08/05 08:22:52;;;;;;;4.05;2.53;;;19.80;99.90;;;;;;5066976;28;20029;-71
2021/08/05 08:25:18;;;;;;;5.13;2.60;;;19.70;99.90;;;;;;5067016;28;20457;-71
2021/08/05 08:27:44;;;;;;;13.80;2.72;;;19.90;99.90;;;;;;5065634;28;20049;-71
2021/08/05 08:30:11;;;;;;;5.53;2.60;;;19.90;99.90;;;;;;5065367;28;20037;-71
2021/08/05 08:32:37;;;;;;;3.80;2.38;;;20.00;99.90;;;;;;5066801;28;20071;-74
2021/08/05 08:35:06;;;;;;;3.50;2.17;;;20.10;99.90;;;;;;5065497;28;20029;-70
2021/08/05 08:37:32;;;;;;;11.25;2.53;;;20.20;99.90;;;;;;5066925;28;20033;-72
2021/08/05 08:39:57;;;;;;;3.22;2.50;;;20.40;99.90;;;;;;5066765;28;20047;-71
2021/08/05 08:42:23;;;;;;;4.47;2.47;;;20.60;99.90;;;;;;5057824;28;20104;-70
2021/08/05 08:44:49;;;;;;;3.47;2.15;;;20.70;99.90;;;;;;5046731;28;20055;-71
2021/08/05 08:47:15;;;;;;;4.32;2.97;;;20.80;99.90;;;;;;5046724;28;20021;-70
2021/08/05 08:49:48;;;;;;;4.55;2.65;;;20.90;99.90;;;;;;5044943;28;20104;-73
2021/08/05 08:52:13;;;;;;;5.50;2.60;;;21.00;99.90;;;;;;5046358;28;20081;-71
2021/08/05 08:54:44;;;;;;;2.50;2.03;;;21.00;99.90;;;;;;5046457;28;20049;-71
2021/08/05 08:57:13;;;;;;;4.97;2.60;;;21.10;99.90;;;;;;5044398;28;20027;-72
2021/08/05 08:59:40;;;;;;;3.47;2.67;;;21.20;99.90;;;;;;5046358;28;20028;-70
2021/08/05 09:02:07;;;;;;;3.55;2.20;;;21.40;99.90;;;;;;5046464;28;20022;-71
2021/08/05 09:04:35;;;;;;;4.78;2.47;;;21.50;99.90;;;;;;5046321;28;20087;-72
2021/08/05 09:07:02;;;;;;;4.85;2.45;;;21.60;99.90;;;;;;5045158;28;20025;-71
2021/08/05 09:09:27;;;;;;;6.97;2.03;;;21.80;99.90;;;;;;5054194;28;20044;-73
2021/08/05 09:11:54;;;;;;;3.83;2.25;;;22.00;99.90;;;;;;5065911;28;20033;-71
2021/08/05 09:14:47;;;;;;;5.93;2.40;;;22.20;99.90;;;;;;5065858;28;20064;-70
2021/08/05 09:17:18;;;;;;;4.28;2.40;;;22.50;99.90;;;;;;5065772;28;20064;-72
2021/08/05 09:19:44;;;;;;;3.85;2.17;;;22.60;99.90;;;;;;5065681;28;20025;-70
2021/08/05 09:22:10;;;;;;;4.53;2.33;;;22.70;99.90;;;;;;5065862;28;20083;-70
2021/08/05 09:24:36;;;;;;;4.30;2.78;;;22.60;99.90;;;;;;5065899;28;20086;-69
2021/08/05 09:27:03;;;;;;;3.58;2.47;;;22.60;99.90;;;;;;5064545;28;20029;-71
2021/08/05 09:29:29;;;;;;;8.88;3.08;;;22.60;99.90;;;;;;5064537;28;20044;-70
2021/08/05 09:32:00;;;;;;;6.75;3.30;;;22.50;99.90;;;;;;5064279;28;20025;-70
2021/08/05 09:34:36;;;;;;;5.82;2.53;;;22.30;99.90;;;;;;5065442;28;20029;-72
2021/08/05 09:37:04;;;;;;;5.82;3.33;;;22.30;99.90;;;;;;5065887;28;20040;-71
2021/08/05 09:39:34;;;;;;;4.75;3.10;;;22.30;99.90;;;;;;5064253;28;20096;-72
2021/08/05 09:42:00;;;;;;;7.20;3.58;;;22.30;99.90;;;;;;5065750;28;20055;-68
2021/08/05 09:44:37;;;;;;;4.90;3.22;;;22.30;99.90;;;;;;5065546;28;20078;-71
2021/08/05 09:47:04;;;;;;;4.93;3.05;;;22.30;99.90;;;;;;5065782;28;20099;-73
2021/08/05 09:49:30;;;;;;;6.40;3.50;;;22.30;99.90;;;;;;5063915;28;20068;-70
2021/08/05 09:51:57;;;;;;;6.60;3.30;;;22.30;99.90;;;;;;5065365;28;20029;-69
2021/08/05 09:54:35;;;;;;;6.07;3.28;;;22.30;99.90;;;;;;5063624;28;20067;-72
2021/08/05 09:57:04;;;;;;;5.65;3.00;;;22.20;99.90;;;;;;5065588;28;20025;-72
2021/08/05 09:59:30;;;;;;;5.30;3.25;;;22.30;99.90;;;;;;5064129;28;20032;-73
2021/08/05 10:01:58;;;;;;;6.97;3.53;;;22.40;99.90;;;;;;5065013;28;20075;-70
2021/08/05 10:04:29;;;;;;;5.88;3.65;;;22.60;99.90;;;;;;5064925;28;20020;-70
2021/08/05 10:06:58;;;;;;;6.03;3.70;;;22.50;99.90;;;;;;5064720;28;20021;-71
2021/08/05 10:09:24;;;;;;;5.57;3.45;;;22.50;99.90;;;;;;5064519;28;20047;-69
2021/08/05 10:11:49;;;;;;;6.72;3.65;;;22.60;99.90;;;;;;5064796;28;20111;-69
2021/08/05 10:14:22;;;;;;;5.75;3.60;;;22.70;99.90;;;;;;5063486;28;20062;-70
2021/08/05 10:16:50;;;;;;;6.82;4.10;;;22.70;99.90;;;;;;5064734;28;20041;-70
2021/08/05 10:19:19;;;;;;;9.00;5.28;;;22.60;99.90;;;;;;5064750;28;20466;-69
2021/08/05 10:21:54;;;;;;;7.15;4.65;;;22.70;99.90;;;;;;5080324;28;20029;-71
2021/08/05 10:24:21;;;;;;;6.10;3.72;;;22.80;99.90;;;;;;5063460;28;20039;-73
2021/08/05 10:26:47;;;;;;;8.48;4.32;;;22.80;99.90;;;;;;5065051;28;20029;-72
2021/08/05 10:29:16;;;;;;;7.28;4.13;;;23.10;99.90;;;;;;5063453;28;20036;-72
2021/08/05 10:31:44;;;;;;;6.15;4.07;;;23.30;99.90;;;;;;5064641;28;20056;-73
2021/08/05 10:34:12;;;;;;;6.65;4.20;;;23.50;99.90;;;;;;5063116;28;20420;-70
2021/08/05 10:36:38;;;;;;;5.03;3.33;;;23.60;99.90;;;;;;5064430;28;20017;-71
2021/08/05 10:39:05;;;;;;;5.75;3.67;;;23.70;99.90;;;;;;5064771;28;20025;-71
2021/08/05 10:41:31;;;;;;;8.60;4.10;;;23.60;99.90;;;;;;5064481;28;20066;-71
2021/08/05 10:44:00;;;;;;;4.88;3.58;;;23.60;99.90;;;;;;5064378;28;20033;-71
2021/08/05 10:46:33;;;;;;;9.75;4.10;;;23.50;99.90;;;;;;5064395;28;20041;-69
2021/08/05 10:49:08;;;;;;;5.70;3.72;;;23.40;99.90;;;;;;5064371;28;20049;-72
2021/08/05 10:51:41;;;;;;;6.18;3.70;;;23.40;99.90;;;;;;5064492;28;20116;-70
2021/08/05 10:54:08;;;;;;;5.43;3.70;;;23.30;99.90;;;;;;5064356;28;20053;-73
2021/08/05 10:56:35;;;;;;;4.80;3.67;;;23.30;99.90;;;;;;5064414;28;20347;-71
2021/08/05 10:59:04;;;;;;;5.82;3.33;;;23.30;99.90;;;;;;5064112;28;20017;-72
2021/08/05 11:01:51;;;;;;;5.20;2.75;;;23.20;99.90;;;;;;5062992;28;20529;-71
2021/08/05 11:04:32;;;;;;;4.78;2.65;;;23.20;99.90;;;;;;5064134;28;20366;-72
2021/08/05 11:07:31;;;;;;;6.45;2.92;;;23.00;99.90;;;;;;5064433;28;20072;-72
2021/08/05 11:10:19;;;;;;;4.32;2.55;;;22.80;99.90;;;;;;5062991;28;20041;-74
2021/08/05 11:13:08;;;;;;;4.15;2.78;;;22.70;99.90;;;;;;5064306;28;20022;-72
2021/08/05 11:15:36;;;;;;;3.97;2.53;;;22.40;99.90;;;;;;5064425;28;20080;-71
2021/08/05 11:20:44;;;;;;;5.40;2.30;;;22.60;99.90;;;;;;5068026;28;20057;-72
2021/08/05 11:23:36;;;;;;;4.07;2.40;;;22.70;99.90;;;;;;5068200;28;20029;-73
2021/08/05 11:26:08;;;;;;;6.90;2.17;;;22.80;99.90;;;;;;5064734;28;20211;-72
2021/08/05 11:28:45;;;;;;;3.72;2.22;;;22.80;99.90;;;;;;5066827;28;20036;-73
2021/08/05 11:31:32;;;;;;;3.55;2.45;;;22.80;99.90;;;;;;5066537;28;20039;-71
2021/08/05 11:33:59;;;;;;;4.43;2.60;;;22.80;99.90;;;;;;5067929;28;20037;-72
2021/08/05 11:36:36;;;;;;;4.40;2.78;;;22.80;99.90;;;;;;5066443;28;20025;-72
2021/08/05 11:39:05;;;;;;;4.20;2.38;;;22.70;99.90;;;;;;5066823;28;20021;-73
2021/08/05 11:41:40;;;;;;;4.47;3.20;;;22.70;99.90;;;;;;5068092;28;20032;-74
2021/08/05 11:44:49;;;;;;;5.70;2.92;;;22.70;99.90;;;;;;5067810;28;20021;-73
2021/08/05 11:47:42;;;;;;;4.93;3.15;;;22.80;99.90;;;;;;5067642;28;20054;-73
2021/08/05 11:50:12;;;;;;;6.85;2.90;;;23.00;99.90;;;;;;5067607;28;20058;-73
2021/08/05 11:53:04;;;;;;;5.78;2.92;;;22.90;99.90;;;;;;5067615;28;20025;-72
2021/08/05 11:55:34;;;;;;;7.88;3.70;;;22.80;99.90;;;;;;5067706;28;20021;-71
2021/08/05 11:58:03;;;;;;;4.32;3.28;;;22.70;99.90;;;;;;5067834;28;20071;-69
2021/08/05 12:00:32;;;;;;;5.07;3.15;;;22.60;99.90;;;;;;5067850;28;20093;-68
2021/08/05 12:03:05;;;;;;;5.25;3.17;;;22.40;99.90;;;;;;5066145;28;20092;-72
2021/08/05 12:05:45;;;;;;;5.47;3.22;;;22.20;99.90;;;;;;5067481;28;20055;-71
2021/08/05 12:08:12;;;;;;;4.95;2.97;;;22.10;99.90;;;;;;5067382;28;20104;-71
2021/08/05 12:10:40;;;;;;;5.30;3.35;;;22.10;99.90;;;;;;5067257;28;20068;-68
2021/08/05 12:13:15;;;;;;;5.07;3.50;;;22.00;99.90;;;;;;5067246;28;20462;-71
2021/08/05 12:15:43;;;;;;;7.68;3.33;;;21.90;99.90;;;;;;5066944;28;20539;-69
2021/08/05 12:18:15;;;;;;;6.60;3.55;;;21.80;99.90;;;;;;5065915;28;20469;-72
2021/08/05 12:20:45;;;;;;;7.22;3.55;;;21.80;99.90;;;;;;5067051;28;20025;-72
2021/08/05 12:23:29;;;;;;;6.82;4.28;;;21.70;99.90;;;;;;5066984;28;20028;-72
2021/08/05 12:28:29;;;;;;;8.57;4.28;;;21.90;99.90;;;;;;5067010;28;20063;-71
2021/08/05 12:31:00;;;;;;;9.02;4.70;;;22.00;99.90;;;;;;5065816;28;20056;-73
2021/08/05 12:33:32;;;;;;;4.63;3.13;;;21.90;99.90;;;;;;5065373;28;20039;-70
2021/08/05 12:36:23;;;;;;;7.03;4.30;;;21.90;99.90;;;;;;5066979;28;20033;-72
2021/08/05 12:38:51;;;;;;;5.50;3.47;;;21.90;99.90;;;;;;5064584;28;20057;-70
2021/08/05 12:41:19;;;;;;;5.00;3.55;;;22.00;99.90;;;;;;5053119;28;20045;-73
2021/08/05 12:43:45;;;;;;;7.35;3.78;;;22.50;99.90;;;;;;5052983;28;20041;-70
2021/08/05 12:46:11;;;;;;;4.85;3.38;;;23.00;99.90;;;;;;5058391;28;20466;-73
2021/08/05 12:48:41;;;;;;;6.70;3.90;;;23.20;99.90;;;;;;5056648;28;20036;-73
2021/08/05 12:51:13;;;;;;;5.63;3.58;;;23.50;99.90;;;;;;5052608;28;20059;-71
2021/08/05 12:53:42;;;;;;;5.93;3.75;;;23.70;99.90;;;;;;5046398;28;20029;-69
2021/08/05 12:56:08;;;;;;;5.10;3.00;;;23.90;99.90;;;;;;5046450;28;20041;-70
2021/08/05 12:58:34;;;;;;;4.35;3.20;;;24.00;99.90;;;;;;5046616;28;20026;-72